Terminal Aerodrome Forecast
Issued by NWS

Home | Current Version | Previous Version | Text Only | Print | Product List | Glossary On
Versions: 1 2 3 4 5 6 7 8 9 10 11 12 13 14 15 16 17 18 19 20 21 22 23 24
000
FTUS43 KGRB 231134
TAFRHI
TAF
KRHI 231134Z 2312/2412 29007KT P6SM SCT003 BKN008
      TEMPO 2312/2313 3SM BR BKN003
     FM231400 31007KT P6SM BKN018 BKN050
     FM231600 32009G16KT P6SM SCT045
     FM240000 36003KT P6SM SCT120
      TEMPO 2404/2408 BKN120=

USA.gov is the U.S. government's official web portal to all federal, state and local government web resources and services.